createdAt,value
2023-02-11T00:00:16.339Z,24.08
2023-02-11T00:03:02.778Z,19.02
2023-02-11T00:06:00.180Z,27.23
2023-02-11T00:08:46.864Z,23.65
2023-02-11T00:11:33.941Z,33.63
2023-02-11T00:14:20.138Z,20.77
2023-02-11T00:17:06.860Z,30.85
2023-02-11T00:19:53.720Z,33.50
2023-02-11T00:22:41.263Z,26.35
2023-02-11T00:25:27.792Z,26.40
2023-02-11T00:28:14.389Z,27.00
2023-02-11T00:31:02.438Z,17.25
2023-02-11T00:33:49.204Z,34.38
2023-02-11T00:36:35.814Z,20.05
2023-02-11T00:39:23.888Z,33.35
2023-02-11T00:42:12.588Z,19.25
2023-02-11T00:44:58.772Z,25.63
2023-02-11T00:47:45.191Z,20.23
2023-02-11T00:50:31.658Z,18.45
2023-02-11T00:53:18.234Z,22.17
2023-02-11T00:56:06.888Z,24.65
2023-02-11T00:58:54.023Z,22.05
2023-02-11T01:01:40.561Z,23.15
2023-02-11T01:04:28.837Z,23.35
2023-02-11T01:07:15.502Z,22.30
2023-02-11T01:10:01.913Z,23.00
2023-02-11T01:12:51.254Z,22.40
2023-02-11T01:15:37.919Z,23.05
2023-02-11T01:18:25.181Z,20.23
2023-02-11T01:21:11.956Z,16.98
2023-02-11T01:23:58.729Z,20.85
2023-02-11T01:26:44.953Z,28.80
2023-02-11T01:29:32.977Z,27.25
2023-02-11T01:32:19.667Z,23.58
2023-02-11T01:35:06.767Z,23.45
2023-02-11T01:37:55.246Z,26.48
2023-02-11T01:40:41.631Z,21.95
2023-02-11T01:43:32.165Z,26.83
2023-02-11T01:46:29.576Z,23.88
2023-02-11T01:49:19.804Z,23.30
2023-02-11T01:52:13.775Z,17.95
2023-02-11T01:55:21.792Z,24.05
2023-02-11T01:58:08.833Z,23.30
2023-02-11T02:00:56.456Z,21.17
2023-02-11T02:03:47.713Z,25.85
2023-02-11T02:06:36.773Z,25.77
2023-02-11T02:09:26.649Z,20.20
2023-02-11T02:12:13.162Z,22.90
2023-02-11T02:15:22.585Z,19.15
2023-02-11T02:18:28.806Z,25.10
2023-02-11T02:22:00.164Z,20.10
2023-02-11T02:27:54.003Z,21.42
2023-02-11T02:30:52.870Z,22.58
2023-02-11T02:33:48.681Z,25.15
2023-02-11T02:36:41.874Z,29.13
2023-02-11T02:39:32.718Z,29.10
2023-02-11T02:42:21.410Z,23.17
2023-02-11T02:45:10.288Z,33.50
2023-02-11T02:47:57.060Z,25.77
2023-02-11T02:50:45.306Z,22.67
2023-02-11T02:53:45.824Z,27.92
2023-02-11T02:56:41.604Z,21.33
2023-02-11T02:59:42.166Z,29.55
2023-02-11T03:02:34.627Z,28.15
2023-02-11T03:05:27.568Z,30.50
2023-02-11T03:08:21.037Z,31.38
2023-02-11T03:11:10.714Z,36.38
2023-02-11T03:14:02.412Z,29.60
2023-02-11T03:16:50.307Z,32.95
2023-02-11T03:19:40.115Z,30.88
2023-02-11T03:22:31.581Z,41.55
2023-02-11T03:25:21.707Z,30.98
2023-02-11T03:28:15.323Z,28.10
2023-02-11T03:31:10.778Z,34.45
2023-02-11T03:34:03.555Z,25.13
2023-02-11T03:36:53.902Z,20.13
2023-02-11T03:39:46.179Z,31.05
2023-02-11T03:42:41.300Z,31.25
2023-02-11T03:45:29.645Z,34.42
2023-02-11T03:48:19.372Z,38.17
2023-02-11T03:51:10.698Z,34.93
2023-02-11T03:54:00.900Z,32.00
2023-02-11T03:56:52.106Z,37.55
2023-02-11T03:59:54.102Z,44.67
2023-02-11T04:02:42.178Z,39.17
2023-02-11T04:05:28.690Z,45.55
2023-02-11T04:08:15.431Z,37.92
2023-02-11T04:11:01.854Z,40.97
2023-02-11T04:13:48.492Z,43.00
2023-02-11T04:16:36.509Z,42.72
2023-02-11T04:19:22.843Z,41.25
2023-02-11T04:22:09.569Z,44.85
2023-02-11T04:24:56.170Z,54.58
2023-02-11T04:27:42.541Z,41.25
2023-02-11T04:30:29.107Z,50.97
2023-02-11T04:33:17.082Z,38.15
2023-02-11T04:36:03.592Z,49.92
2023-02-11T04:38:50.130Z,53.20
2023-02-11T04:41:36.688Z,53.03
2023-02-11T04:44:23.417Z,44.90
2023-02-11T04:47:09.489Z,55.95
2023-02-11T04:49:57.598Z,52.65
2023-02-11T04:52:44.308Z,58.42
2023-02-11T04:55:30.892Z,61.58
2023-02-11T04:58:17.596Z,54.08
2023-02-11T05:01:07.975Z,49.00
2023-02-11T05:03:54.485Z,50.53
2023-02-11T05:06:42.468Z,56.28
2023-02-11T05:09:29.477Z,52.58
2023-02-11T05:12:15.842Z,44.38
2023-02-11T05:15:02.589Z,53.30
2023-02-11T05:17:49.016Z,54.97
2023-02-11T05:20:35.563Z,55.60
2023-02-11T05:23:23.400Z,56.03
2023-02-11T05:26:10.529Z,60.88
2023-02-11T05:28:57.635Z,56.97
2023-02-11T05:31:43.773Z,59.35
2023-02-11T05:34:30.390Z,59.05
2023-02-11T05:37:16.937Z,59.63
2023-02-11T05:40:05.155Z,55.42
2023-02-11T05:42:51.758Z,56.10
2023-02-11T05:45:38.865Z,61.60
2023-02-11T05:48:25.071Z,64.32
2023-02-11T05:51:12.047Z,55.35
2023-02-11T05:53:58.656Z,67.63
2023-02-11T05:56:46.652Z,59.30
2023-02-11T05:59:33.252Z,58.15
2023-02-11T06:02:19.856Z,56.10
2023-02-11T06:05:06.787Z,62.63
2023-02-11T06:07:53.240Z,60.95
2023-02-11T06:10:42.418Z,67.35
2023-02-11T06:13:30.313Z,69.45
2023-02-11T06:16:16.868Z,60.47
2023-02-11T06:19:04.101Z,63.33
2023-02-11T06:21:50.788Z,63.30
2023-02-11T06:24:58.939Z,65.70
2023-02-11T06:27:44.143Z,59.75
2023-02-11T06:30:32.043Z,54.08
2023-02-11T06:33:18.606Z,56.92
2023-02-11T06:36:06.899Z,59.47
2023-02-11T06:38:53.967Z,58.70
2023-02-11T06:41:40.854Z,62.78
2023-02-11T06:44:27.748Z,59.53
2023-02-11T06:47:15.819Z,64.97
2023-02-11T06:50:07.332Z,75.20
2023-02-11T06:52:54.628Z,53.72
2023-02-11T06:55:41.345Z,68.63
2023-02-11T06:58:28.008Z,67.10
2023-02-11T07:01:17.209Z,57.63
2023-02-11T07:04:05.198Z,62.15
2023-02-11T07:06:51.722Z,61.65
2023-02-11T07:09:37.965Z,57.90
2023-02-11T07:12:24.471Z,62.03
2023-02-11T07:15:11.199Z,65.60
2023-02-11T07:17:57.805Z,61.15
2023-02-11T07:20:45.923Z,62.20
2023-02-11T07:23:32.518Z,70.38
2023-02-11T07:26:22.553Z,63.50
2023-02-11T07:29:08.788Z,70.07
2023-02-11T07:31:55.353Z,65.85
2023-02-11T07:34:41.903Z,62.17
2023-02-11T07:37:29.666Z,68.70
2023-02-11T07:40:16.098Z,67.65
2023-02-11T07:43:02.959Z,61.72
2023-02-11T07:45:49.429Z,65.00
2023-02-11T07:48:36.329Z,74.50
2023-02-11T07:51:25.052Z,73.82
2023-02-11T07:54:13.191Z,69.63
2023-02-11T07:56:59.763Z,63.92
2023-02-11T07:59:46.653Z,73.10
2023-02-11T08:02:33.109Z,62.50
2023-02-11T08:05:19.496Z,66.90
2023-02-11T08:08:06.386Z,62.63
2023-02-11T08:10:54.425Z,75.00
2023-02-11T08:13:41.708Z,69.63
2023-02-11T08:16:30.327Z,74.80
2023-02-11T08:19:17.691Z,74.05
2023-02-11T08:22:03.826Z,66.53
2023-02-11T08:24:52.386Z,66.68
2023-02-11T08:27:40.347Z,61.13
2023-02-11T08:30:27.703Z,65.93
2023-02-11T08:33:14.136Z,69.07
2023-02-11T08:36:01.043Z,56.47
2023-02-11T08:38:47.712Z,64.10
2023-02-11T08:41:35.664Z,68.15
2023-02-11T08:44:24.565Z,63.22
2023-02-11T08:47:10.929Z,69.70
2023-02-11T08:49:57.512Z,70.20
2023-02-11T08:52:44.584Z,60.30
2023-02-11T08:55:31.068Z,60.90
2023-02-11T08:58:19.260Z,58.55
2023-02-11T09:01:12.323Z,63.30
2023-02-11T09:03:59.446Z,58.92
2023-02-11T09:06:46.663Z,56.92
2023-02-11T09:09:33.367Z,61.78
2023-02-11T09:12:19.975Z,60.53
2023-02-11T09:15:07.097Z,59.38
2023-02-11T09:17:55.124Z,59.35
2023-02-11T09:20:41.860Z,60.60
2023-02-11T09:23:28.409Z,60.10
2023-02-11T09:26:17.772Z,58.80
2023-02-11T09:29:05.493Z,56.88
2023-02-11T09:31:52.640Z,51.42
2023-02-11T09:34:41.726Z,58.13
2023-02-11T09:37:28.591Z,59.60
2023-02-11T09:40:17.495Z,59.63
2023-02-11T09:43:09.478Z,57.15
2023-02-11T09:45:57.463Z,58.67
2023-02-11T09:48:47.382Z,54.15
2023-02-11T09:51:43.262Z,60.10
2023-02-11T09:54:35.399Z,55.55
2023-02-11T09:57:28.619Z,51.22
2023-02-11T10:00:22.814Z,51.35
2023-02-11T10:03:32.683Z,49.60
2023-02-11T10:06:33.845Z,49.80
2023-02-11T10:09:34.107Z,49.58
2023-02-11T10:12:38.145Z,50.47
2023-02-11T10:15:41.279Z,46.28
2023-02-11T10:18:46.678Z,45.85
2023-02-11T10:21:38.658Z,43.53
2023-02-11T10:24:28.247Z,45.38
2023-02-11T10:27:20.373Z,41.47
2023-02-11T10:30:18.939Z,45.50
2023-02-11T10:33:16.378Z,45.03
2023-02-11T10:36:02.715Z,39.25
2023-02-11T10:38:49.268Z,39.65
2023-02-11T10:41:43.064Z,38.45
2023-02-11T10:44:33.187Z,42.03
2023-02-11T10:47:23.372Z,39.97
2023-02-11T10:50:20.978Z,40.63
2023-02-11T10:53:20.424Z,36.50
2023-02-11T10:56:08.320Z,43.33
2023-02-11T10:59:02.768Z,39.88
2023-02-11T11:01:53.871Z,38.95
2023-02-11T11:04:44.005Z,37.47
2023-02-11T11:07:32.680Z,35.38
2023-02-11T11:10:28.373Z,35.30
2023-02-11T11:13:29.211Z,35.30
2023-02-11T11:16:23.157Z,31.35
2023-02-11T11:19:23.991Z,32.78
2023-02-11T11:22:21.725Z,27.80
2023-02-11T11:25:22.784Z,29.23
2023-02-11T11:28:22.901Z,29.00
2023-02-11T11:31:16.418Z,39.83
2023-02-11T11:34:24.257Z,31.30
2023-02-11T11:37:14.126Z,27.38
2023-02-11T11:40:08.403Z,26.25
2023-02-11T11:43:20.231Z,30.20
2023-02-11T11:46:12.286Z,28.95
2023-02-11T11:49:11.295Z,29.15
2023-02-11T11:52:11.235Z,26.58
2023-02-11T11:55:05.978Z,30.88
2023-02-11T11:57:52.732Z,25.30
2023-02-11T12:00:44.266Z,26.55
2023-02-11T12:04:18.388Z,29.13
2023-02-11T12:07:18.615Z,25.45
2023-02-11T12:10:34.256Z,24.00
2023-02-11T12:13:33.030Z,24.25
2023-02-11T12:16:29.724Z,25.58
2023-02-11T12:19:48.857Z,28.13
2023-02-11T12:22:43.113Z,24.55
2023-02-11T12:25:36.292Z,28.13
2023-02-11T12:28:33.552Z,22.25
2023-02-11T12:31:31.341Z,25.75
2023-02-11T12:34:41.135Z,26.67
2023-02-11T12:37:41.418Z,22.83
2023-02-11T12:43:24.554Z,20.90
2023-02-11T12:46:39.071Z,27.55
2023-02-11T12:49:51.945Z,24.58
2023-02-11T12:52:57.686Z,23.60
2023-02-11T12:55:48.022Z,21.90
2023-02-11T13:01:37.259Z,27.67
2023-02-11T13:04:29.940Z,24.92
2023-02-11T13:07:24.116Z,20.92
2023-02-11T13:10:26.421Z,23.30
2023-02-11T13:13:19.286Z,19.55
2023-02-11T13:16:07.947Z,20.20
2023-02-11T13:19:03.818Z,23.88
2023-02-11T13:22:01.940Z,12.60
2023-02-11T13:24:55.781Z,9.27
2023-02-11T13:27:50.564Z,12.75
2023-02-11T13:30:46.974Z,16.13
2023-02-11T13:33:36.046Z,12.07
2023-02-11T13:36:27.659Z,13.43
2023-02-11T13:39:22.338Z,18.40
2023-02-11T13:42:18.080Z,11.00
2023-02-11T13:45:19.102Z,10.50
2023-02-11T13:48:08.278Z,11.48
2023-02-11T13:50:58.338Z,9.13
2023-02-11T13:53:48.441Z,10.77
2023-02-11T13:59:47.792Z,7.82
2023-02-11T14:05:56.909Z,9.75
2023-02-11T14:09:03.487Z,5.50
2023-02-11T14:11:51.605Z,8.63
2023-02-11T14:15:15.849Z,8.38
2023-02-11T14:18:04.788Z,8.93
2023-02-11T14:20:51.582Z,14.20
2023-02-11T14:23:38.664Z,12.68
2023-02-11T14:26:35.130Z,9.25
2023-02-11T14:29:29.780Z,11.00
2023-02-11T14:32:32.692Z,11.38
2023-02-11T14:35:30.498Z,8.88
2023-02-11T14:38:25.983Z,8.93
2023-02-11T14:41:21.133Z,8.68
2023-02-11T14:44:15.159Z,10.02
2023-02-11T14:47:02.245Z,14.05
2023-02-11T14:49:50.654Z,10.45
2023-02-11T14:52:40.144Z,10.95
2023-02-11T14:55:33.169Z,11.65
2023-02-11T14:58:22.265Z,10.55
2023-02-11T15:01:26.959Z,11.57
2023-02-11T15:04:24.776Z,9.93
2023-02-11T15:07:14.696Z,16.70
2023-02-11T15:10:03.398Z,11.45
2023-02-11T15:12:51.223Z,10.85
2023-02-11T15:15:40.964Z,15.75
2023-02-11T15:18:35.119Z,9.90
2023-02-11T15:21:24.728Z,8.00
2023-02-11T15:24:25.293Z,9.40
2023-02-11T15:30:01.389Z,9.85
2023-02-11T15:32:48.595Z,9.45
2023-02-11T15:35:38.055Z,9.40
2023-02-11T15:38:24.848Z,8.18
2023-02-11T15:41:34.757Z,9.25
2023-02-11T15:44:30.526Z,13.55
2023-02-11T15:47:21.870Z,13.73
2023-02-11T15:50:21.739Z,8.13
2023-02-11T15:53:24.291Z,10.70
2023-02-11T15:56:15.773Z,9.10
2023-02-11T15:59:13.051Z,12.95
2023-02-11T16:02:08.514Z,10.75
2023-02-11T16:04:57.644Z,10.15
2023-02-11T16:07:46.935Z,11.93
2023-02-11T16:10:36.153Z,11.05
2023-02-11T16:13:23.850Z,9.18
2023-02-11T16:16:20.286Z,9.45
2023-02-11T16:19:19.263Z,11.05
2023-02-11T16:22:11.292Z,14.85
2023-02-11T16:25:00.492Z,12.60
2023-02-11T16:27:51.746Z,14.05
2023-02-11T16:30:40.439Z,11.68
2023-02-11T16:33:27.104Z,10.65
2023-02-11T16:36:18.086Z,15.90
2023-02-11T16:39:05.107Z,16.63
2023-02-11T16:41:52.774Z,21.88
2023-02-11T16:44:39.984Z,11.27
2023-02-11T16:47:28.614Z,15.48
2023-02-11T16:50:23.238Z,11.43
2023-02-11T16:53:11.763Z,16.27
2023-02-11T16:55:58.730Z,13.30
2023-02-11T16:58:46.471Z,12.05
2023-02-11T17:01:33.522Z,14.77
2023-02-11T17:04:23.088Z,12.52
2023-02-11T17:07:09.840Z,16.92
2023-02-11T17:09:58.753Z,15.13
2023-02-11T17:12:45.376Z,14.88
2023-02-11T17:15:32.032Z,15.57
2023-02-11T17:18:18.661Z,14.15
2023-02-11T17:21:07.603Z,14.52
2023-02-11T17:23:53.937Z,24.05
2023-02-11T17:26:42.949Z,11.65
2023-02-11T17:29:30.141Z,12.15
2023-02-11T17:32:16.696Z,13.95
2023-02-11T17:35:03.449Z,16.10
2023-02-11T17:37:50.250Z,16.00
2023-02-11T17:40:36.765Z,18.42
2023-02-11T17:43:24.902Z,16.13
2023-02-11T17:46:11.524Z,18.38
2023-02-11T17:48:59.788Z,13.05
2023-02-11T17:51:46.589Z,18.70
2023-02-11T17:54:33.126Z,14.68
2023-02-11T17:57:19.861Z,16.15
2023-02-11T18:00:09.690Z,15.73
2023-02-11T18:03:03.263Z,17.00
2023-02-11T18:05:51.051Z,18.15
2023-02-11T18:08:38.163Z,19.55
2023-02-11T18:11:25.148Z,14.07
2023-02-11T18:14:12.289Z,13.38
2023-02-11T18:17:00.340Z,13.98
2023-02-11T18:19:47.476Z,15.38
2023-02-11T18:22:39.114Z,13.13
2023-02-11T18:25:26.061Z,13.52
2023-02-11T18:28:12.723Z,15.77
2023-02-11T18:30:59.965Z,16.85
2023-02-11T18:33:48.466Z,14.55
2023-02-11T18:36:35.961Z,23.13
2023-02-11T18:39:24.175Z,15.13
2023-02-11T18:42:11.363Z,16.23
2023-02-11T18:44:57.758Z,12.18
2023-02-11T18:47:44.929Z,16.27
2023-02-11T18:50:33.152Z,12.50
2023-02-11T18:53:19.844Z,15.98
2023-02-11T18:56:10.184Z,17.88
2023-02-11T18:58:57.267Z,17.58
2023-02-11T19:01:46.805Z,16.35
2023-02-11T19:04:33.537Z,15.30
2023-02-11T19:07:21.373Z,14.70
2023-02-11T19:10:09.177Z,19.33
2023-02-11T19:12:56.259Z,15.68
2023-02-11T19:15:43.700Z,14.05
2023-02-11T19:18:30.170Z,24.52
2023-02-11T19:21:16.814Z,25.05
2023-02-11T19:24:07.714Z,20.10
2023-02-11T19:26:57.722Z,13.77
2023-02-11T19:29:44.254Z,19.73
2023-02-11T19:32:31.277Z,13.00
2023-02-11T19:35:17.866Z,13.40
2023-02-11T19:38:05.311Z,19.13
2023-02-11T19:40:57.887Z,17.30
2023-02-11T19:43:44.365Z,17.80
2023-02-11T19:46:33.348Z,17.73
2023-02-11T19:49:23.180Z,22.52
2023-02-11T19:52:09.790Z,15.45
2023-02-11T19:54:56.219Z,19.05
2023-02-11T19:57:44.311Z,20.60
2023-02-11T20:00:31.195Z,15.77
2023-02-11T20:03:17.700Z,18.35
2023-02-11T20:06:06.665Z,19.70
2023-02-11T20:08:58.232Z,13.57
2023-02-11T20:11:45.806Z,19.17
2023-02-11T20:14:33.696Z,20.50
2023-02-11T20:17:20.088Z,15.45
2023-02-11T20:20:08.248Z,17.67
2023-02-11T20:22:55.013Z,25.30
2023-02-11T20:25:41.538Z,23.73
2023-02-11T20:28:28.198Z,25.23
2023-02-11T20:31:16.754Z,20.58
2023-02-11T20:34:03.479Z,16.33
2023-02-11T20:36:52.670Z,20.83
2023-02-11T20:39:41.807Z,22.63
2023-02-11T20:42:28.435Z,19.27
2023-02-11T20:45:14.799Z,18.70
2023-02-11T20:48:02.593Z,16.38
2023-02-11T20:50:49.538Z,21.60
2023-02-11T20:53:37.250Z,18.90
2023-02-11T20:56:25.622Z,19.95
2023-02-11T20:59:13.969Z,21.25
2023-02-11T21:02:01.612Z,21.10
2023-02-11T21:04:49.540Z,24.73
2023-02-11T21:07:38.792Z,20.70
2023-02-11T21:10:25.862Z,20.23
2023-02-11T21:13:12.209Z,18.05
2023-02-11T21:15:59.161Z,17.63
2023-02-11T21:18:46.001Z,28.85
2023-02-11T21:21:36.884Z,15.85
2023-02-11T21:24:23.733Z,27.15
2023-02-11T21:27:10.371Z,19.02
2023-02-11T21:29:56.990Z,24.23
2023-02-11T21:32:43.759Z,19.83
2023-02-11T21:35:32.909Z,20.60
2023-02-11T21:38:20.605Z,21.30
2023-02-11T21:41:07.500Z,22.10
2023-02-11T21:43:54.119Z,22.35
2023-02-11T21:46:41.004Z,25.27
2023-02-11T21:49:29.087Z,21.67
2023-02-11T21:52:17.131Z,20.63
2023-02-11T21:55:06.045Z,23.90
2023-02-11T21:57:52.270Z,25.58
2023-02-11T22:00:39.477Z,25.55
2023-02-11T22:03:26.046Z,27.38
2023-02-11T22:06:15.369Z,23.23
2023-02-11T22:09:03.618Z,25.30
2023-02-11T22:11:51.579Z,23.55
2023-02-11T22:14:38.960Z,26.27
2023-02-11T22:17:29.090Z,20.98
2023-02-11T22:20:17.062Z,28.35
2023-02-11T22:23:03.642Z,25.17
2023-02-11T22:25:50.317Z,22.25
2023-02-11T22:28:40.574Z,23.50
2023-02-11T22:34:14.507Z,23.48
2023-02-11T22:37:02.315Z,22.73
2023-02-11T22:39:48.807Z,27.52
2023-02-11T22:42:35.840Z,22.52
2023-02-11T22:45:23.797Z,28.83
2023-02-11T22:48:10.314Z,23.38
2023-02-11T22:50:56.842Z,23.58
2023-02-11T22:53:44.448Z,25.17
2023-02-11T22:56:33.450Z,25.20
2023-02-11T23:02:32.425Z,25.67
2023-02-11T23:05:18.931Z,25.23
2023-02-11T23:08:05.895Z,27.05
2023-02-11T23:10:52.605Z,25.42
2023-02-11T23:13:41.678Z,27.60
2023-02-11T23:16:30.771Z,23.83
2023-02-11T23:19:19.886Z,27.80
2023-02-11T23:22:06.842Z,28.13
2023-02-11T23:24:53.402Z,22.80
2023-02-11T23:27:39.975Z,22.02
2023-02-11T23:30:26.924Z,25.40
2023-02-11T23:33:14.374Z,26.27
2023-02-11T23:36:02.914Z,26.25
2023-02-11T23:38:49.589Z,24.02
2023-02-11T23:41:35.912Z,24.40
2023-02-11T23:44:22.488Z,22.92
2023-02-11T23:47:09.187Z,30.27
2023-02-11T23:49:58.091Z,28.42
2023-02-11T23:52:47.459Z,23.92
2023-02-11T23:55:39.848Z,27.27
2023-02-11T23:58:26.314Z,26.17
